sensor_id;sensor_type;location;lat;lon;timestamp;P1;durP1;ratioP1;P2;durP2;ratioP2
36747;SDS011;22716;51.556;5.080;2024-02-28T00:00:30;13.60;;;9.67;;
36747;SDS011;22716;51.556;5.080;2024-02-28T00:02:58;14.63;;;9.90;;
36747;SDS011;22716;51.556;5.080;2024-02-28T00:05:27;12.53;;;10.03;;
36747;SDS011;22716;51.556;5.080;2024-02-28T00:07:55;14.43;;;10.77;;
36747;SDS011;22716;51.556;5.080;2024-02-28T00:10:25;13.53;;;9.57;;
36747;SDS011;22716;51.556;5.080;2024-02-28T00:12:56;13.20;;;9.47;;
36747;SDS011;22716;51.556;5.080;2024-02-28T00:15:25;12.00;;;9.87;;
36747;SDS011;22716;51.556;5.080;2024-02-28T00:17:54;17.03;;;10.00;;
36747;SDS011;22716;51.556;5.080;2024-02-28T00:20:23;9.77;;;8.77;;
36747;SDS011;22716;51.556;5.080;2024-02-28T00:22:52;11.90;;;9.13;;
36747;SDS011;22716;51.556;5.080;2024-02-28T00:25:21;13.77;;;8.37;;
36747;SDS011;22716;51.556;5.080;2024-02-28T00:27:50;15.83;;;9.20;;
36747;SDS011;22716;51.556;5.080;2024-02-28T00:30:21;15.37;;;10.10;;
36747;SDS011;22716;51.556;5.080;2024-02-28T00:32:49;12.50;;;8.63;;
36747;SDS011;22716;51.556;5.080;2024-02-28T00:35:18;10.50;;;7.80;;
36747;SDS011;22716;51.556;5.080;2024-02-28T00:37:46;15.43;;;7.33;;
36747;SDS011;22716;51.556;5.080;2024-02-28T00:40:15;11.87;;;9.00;;
36747;SDS011;22716;51.556;5.080;2024-02-28T00:42:43;9.63;;;8.00;;
36747;SDS011;22716;51.556;5.080;2024-02-28T00:45:13;11.30;;;8.00;;
36747;SDS011;22716;51.556;5.080;2024-02-28T00:47:45;10.53;;;8.00;;
36747;SDS011;22716;51.556;5.080;2024-02-28T00:50:14;11.33;;;8.43;;
36747;SDS011;22716;51.556;5.080;2024-02-28T00:52:42;11.80;;;9.30;;
36747;SDS011;22716;51.556;5.080;2024-02-28T00:55:11;11.30;;;8.63;;
36747;SDS011;22716;51.556;5.080;2024-02-28T00:57:39;12.70;;;7.83;;
36747;SDS011;22716;51.556;5.080;2024-02-28T01:00:08;10.52;;;8.23;;
36747;SDS011;22716;51.556;5.080;2024-02-28T01:02:39;12.37;;;8.80;;
36747;SDS011;22716;51.556;5.080;2024-02-28T01:05:11;12.20;;;8.30;;
36747;SDS011;22716;51.556;5.080;2024-02-28T01:07:39;12.23;;;8.03;;
36747;SDS011;22716;51.556;5.080;2024-02-28T01:10:09;13.37;;;8.57;;
36747;SDS011;22716;51.556;5.080;2024-02-28T01:12:38;11.83;;;8.43;;
36747;SDS011;22716;51.556;5.080;2024-02-28T01:15:07;11.40;;;8.23;;
36747;SDS011;22716;51.556;5.080;2024-02-28T01:17:36;12.97;;;8.83;;
36747;SDS011;22716;51.556;5.080;2024-02-28T01:20:05;14.93;;;8.73;;
36747;SDS011;22716;51.556;5.080;2024-02-28T01:22:38;10.90;;;9.03;;
36747;SDS011;22716;51.556;5.080;2024-02-28T01:25:07;15.80;;;9.13;;
36747;SDS011;22716;51.556;5.080;2024-02-28T01:27:36;13.50;;;9.77;;
36747;SDS011;22716;51.556;5.080;2024-02-28T01:30:05;12.70;;;9.03;;
36747;SDS011;22716;51.556;5.080;2024-02-28T01:32:35;9.87;;;7.70;;
36747;SDS011;22716;51.556;5.080;2024-02-28T01:35:04;10.43;;;8.00;;
36747;SDS011;22716;51.556;5.080;2024-02-28T01:37:33;11.43;;;8.60;;
36747;SDS011;22716;51.556;5.080;2024-02-28T01:40:05;11.53;;;7.77;;
36747;SDS011;22716;51.556;5.080;2024-02-28T01:42:35;12.20;;;7.57;;
36747;SDS011;22716;51.556;5.080;2024-02-28T01:45:05;9.80;;;7.67;;
36747;SDS011;22716;51.556;5.080;2024-02-28T01:47:36;11.77;;;8.40;;
36747;SDS011;22716;51.556;5.080;2024-02-28T01:50:05;12.73;;;8.23;;
36747;SDS011;22716;51.556;5.080;2024-02-28T01:52:35;14.60;;;8.43;;
36747;SDS011;22716;51.556;5.080;2024-02-28T01:55:08;11.60;;;7.80;;
36747;SDS011;22716;51.556;5.080;2024-02-28T01:57:37;9.57;;;7.67;;
36747;SDS011;22716;51.556;5.080;2024-02-28T02:00:06;12.33;;;8.00;;
36747;SDS011;22716;51.556;5.080;2024-02-28T02:02:36;16.37;;;8.67;;
36747;SDS011;22716;51.556;5.080;2024-02-28T02:05:06;12.47;;;8.83;;
36747;SDS011;22716;51.556;5.080;2024-02-28T02:07:35;19.13;;;10.73;;
36747;SDS011;22716;51.556;5.080;2024-02-28T02:10:05;14.13;;;9.47;;
36747;SDS011;22716;51.556;5.080;2024-02-28T02:12:37;15.67;;;8.77;;
36747;SDS011;22716;51.556;5.080;2024-02-28T02:15:06;10.00;;;7.63;;
36747;SDS011;22716;51.556;5.080;2024-02-28T02:17:35;12.67;;;9.20;;
36747;SDS011;22716;51.556;5.080;2024-02-28T02:20:04;12.27;;;8.43;;
36747;SDS011;22716;51.556;5.080;2024-02-28T02:22:38;12.77;;;9.07;;
36747;SDS011;22716;51.556;5.080;2024-02-28T02:25:07;17.77;;;11.10;;
36747;SDS011;22716;51.556;5.080;2024-02-28T02:27:36;15.23;;;11.17;;
36747;SDS011;22716;51.556;5.080;2024-02-28T02:30:07;13.83;;;10.07;;
36747;SDS011;22716;51.556;5.080;2024-02-28T02:32:36;14.07;;;9.73;;
36747;SDS011;22716;51.556;5.080;2024-02-28T02:35:05;14.53;;;9.83;;
36747;SDS011;22716;51.556;5.080;2024-02-28T02:37:34;19.17;;;10.07;;
36747;SDS011;22716;51.556;5.080;2024-02-28T02:40:06;12.47;;;8.90;;
36747;SDS011;22716;51.556;5.080;2024-02-28T02:42:35;15.00;;;8.90;;
36747;SDS011;22716;51.556;5.080;2024-02-28T02:45:04;13.97;;;9.53;;
36747;SDS011;22716;51.556;5.080;2024-02-28T02:47:34;12.93;;;7.93;;
36747;SDS011;22716;51.556;5.080;2024-02-28T02:50:03;13.70;;;8.60;;
36747;SDS011;22716;51.556;5.080;2024-02-28T02:52:32;12.57;;;8.70;;
36747;SDS011;22716;51.556;5.080;2024-02-28T02:55:00;14.67;;;8.97;;
36747;SDS011;22716;51.556;5.080;2024-02-28T02:57:32;11.57;;;9.10;;
36747;SDS011;22716;51.556;5.080;2024-02-28T03:00:01;11.57;;;8.80;;
36747;SDS011;22716;51.556;5.080;2024-02-28T03:02:31;17.23;;;8.20;;
36747;SDS011;22716;51.556;5.080;2024-02-28T03:05:00;12.13;;;9.10;;
36747;SDS011;22716;51.556;5.080;2024-02-28T03:07:28;14.20;;;9.23;;
36747;SDS011;22716;51.556;5.080;2024-02-28T03:09:57;13.07;;;9.27;;
36747;SDS011;22716;51.556;5.080;2024-02-28T03:12:26;11.77;;;8.10;;
36747;SDS011;22716;51.556;5.080;2024-02-28T03:14:57;12.50;;;8.80;;
36747;SDS011;22716;51.556;5.080;2024-02-28T03:17:26;13.33;;;8.70;;
36747;SDS011;22716;51.556;5.080;2024-02-28T03:19:54;17.53;;;8.97;;
36747;SDS011;22716;51.556;5.080;2024-02-28T03:22:23;10.20;;;8.20;;
36747;SDS011;22716;51.556;5.080;2024-02-28T03:24:51;13.30;;;8.93;;
36747;SDS011;22716;51.556;5.080;2024-02-28T03:27:20;11.10;;;9.07;;
36747;SDS011;22716;51.556;5.080;2024-02-28T03:29:49;13.80;;;9.83;;
36747;SDS011;22716;51.556;5.080;2024-02-28T03:32:20;15.23;;;9.47;;
36747;SDS011;22716;51.556;5.080;2024-02-28T03:34:48;11.73;;;9.17;;
36747;SDS011;22716;51.556;5.080;2024-02-28T03:37:17;12.77;;;9.40;;
36747;SDS011;22716;51.556;5.080;2024-02-28T03:39:45;12.83;;;9.03;;
36747;SDS011;22716;51.556;5.080;2024-02-28T03:42:14;14.80;;;9.30;;
36747;SDS011;22716;51.556;5.080;2024-02-28T03:44:42;16.80;;;9.03;;
36747;SDS011;22716;51.556;5.080;2024-02-28T03:47:11;12.30;;;9.37;;
36747;SDS011;22716;51.556;5.080;2024-02-28T03:49:42;13.23;;;9.97;;
36747;SDS011;22716;51.556;5.080;2024-02-28T03:52:10;13.97;;;10.20;;
36747;SDS011;22716;51.556;5.080;2024-02-28T03:54:41;14.13;;;10.03;;
36747;SDS011;22716;51.556;5.080;2024-02-28T03:57:11;14.57;;;10.13;;
36747;SDS011;22716;51.556;5.080;2024-02-28T03:59:40;17.93;;;12.03;;
36747;SDS011;22716;51.556;5.080;2024-02-28T04:02:09;14.60;;;11.47;;
36747;SDS011;22716;51.556;5.080;2024-02-28T04:04:37;18.73;;;11.40;;
36747;SDS011;22716;51.556;5.080;2024-02-28T04:07:09;17.13;;;10.83;;
36747;SDS011;22716;51.556;5.080;2024-02-28T04:09:39;17.63;;;12.63;;
36747;SDS011;22716;51.556;5.080;2024-02-28T04:12:08;15.93;;;11.10;;
36747;SDS011;22716;51.556;5.080;2024-02-28T04:14:37;13.57;;;10.97;;
36747;SDS011;22716;51.556;5.080;2024-02-28T04:17:06;19.90;;;11.87;;
36747;SDS011;22716;51.556;5.080;2024-02-28T04:19:35;16.33;;;11.03;;
36747;SDS011;22716;51.556;5.080;2024-02-28T04:22:05;18.03;;;11.83;;
36747;SDS011;22716;51.556;5.080;2024-02-28T04:24:36;19.07;;;12.57;;
36747;SDS011;22716;51.556;5.080;2024-02-28T04:27:04;18.10;;;11.27;;
36747;SDS011;22716;51.556;5.080;2024-02-28T04:29:35;16.83;;;11.50;;
36747;SDS011;22716;51.556;5.080;2024-02-28T04:32:04;20.63;;;11.43;;
36747;SDS011;22716;51.556;5.080;2024-02-28T04:34:33;15.87;;;10.60;;
36747;SDS011;22716;51.556;5.080;2024-02-28T04:37:01;17.53;;;11.53;;
36747;SDS011;22716;51.556;5.080;2024-02-28T04:39:30;13.20;;;10.50;;
36747;SDS011;22716;51.556;5.080;2024-02-28T04:42:01;15.07;;;10.57;;
36747;SDS011;22716;51.556;5.080;2024-02-28T04:44:30;16.73;;;10.97;;
36747;SDS011;22716;51.556;5.080;2024-02-28T04:46:58;17.37;;;10.97;;
36747;SDS011;22716;51.556;5.080;2024-02-28T04:49:27;16.40;;;12.00;;
36747;SDS011;22716;51.556;5.080;2024-02-28T04:51:56;17.77;;;13.32;;
36747;SDS011;22716;51.556;5.080;2024-02-28T04:54:24;19.53;;;11.67;;
36747;SDS011;22716;51.556;5.080;2024-02-28T04:56:53;18.03;;;11.83;;
36747;SDS011;22716;51.556;5.080;2024-02-28T04:59:24;15.70;;;11.13;;
36747;SDS011;22716;51.556;5.080;2024-02-28T05:01:51;17.63;;;12.47;;
36747;SDS011;22716;51.556;5.080;2024-02-28T05:04:20;16.87;;;12.77;;
36747;SDS011;22716;51.556;5.080;2024-02-28T05:06:49;18.70;;;12.30;;
36747;SDS011;22716;51.556;5.080;2024-02-28T05:09:18;20.40;;;13.40;;
36747;SDS011;22716;51.556;5.080;2024-02-28T05:11:46;21.90;;;13.73;;
36747;SDS011;22716;51.556;5.080;2024-02-28T05:14:15;17.47;;;12.73;;
36747;SDS011;22716;51.556;5.080;2024-02-28T05:16:46;21.27;;;12.47;;
36747;SDS011;22716;51.556;5.080;2024-02-28T05:19:15;22.27;;;14.13;;
36747;SDS011;22716;51.556;5.080;2024-02-28T05:21:44;20.23;;;13.10;;
36747;SDS011;22716;51.556;5.080;2024-02-28T05:24:14;19.80;;;12.93;;
36747;SDS011;22716;51.556;5.080;2024-02-28T05:26:43;17.67;;;12.63;;
36747;SDS011;22716;51.556;5.080;2024-02-28T05:29:12;19.57;;;13.30;;
36747;SDS011;22716;51.556;5.080;2024-02-28T05:31:40;20.57;;;12.67;;
36747;SDS011;22716;51.556;5.080;2024-02-28T05:34:12;18.23;;;12.40;;
36747;SDS011;22716;51.556;5.080;2024-02-28T05:36:41;19.70;;;12.47;;
36747;SDS011;22716;51.556;5.080;2024-02-28T05:39:10;19.80;;;12.97;;
36747;SDS011;22716;51.556;5.080;2024-02-28T05:41:38;22.80;;;13.90;;
36747;SDS011;22716;51.556;5.080;2024-02-28T05:44:07;19.07;;;12.83;;
36747;SDS011;22716;51.556;5.080;2024-02-28T05:46:36;23.70;;;14.43;;
36747;SDS011;22716;51.556;5.080;2024-02-28T05:49:04;21.27;;;13.60;;
36747;SDS011;22716;51.556;5.080;2024-02-28T05:51:36;21.73;;;12.43;;
36747;SDS011;22716;51.556;5.080;2024-02-28T05:54:04;20.93;;;13.60;;
36747;SDS011;22716;51.556;5.080;2024-02-28T05:56:33;18.13;;;13.30;;
36747;SDS011;22716;51.556;5.080;2024-02-28T05:59:01;21.00;;;13.67;;
36747;SDS011;22716;51.556;5.080;2024-02-28T06:01:30;19.17;;;13.30;;
36747;SDS011;22716;51.556;5.080;2024-02-28T06:03:59;24.50;;;14.10;;
36747;SDS011;22716;51.556;5.080;2024-02-28T06:06:28;19.33;;;13.10;;
36747;SDS011;22716;51.556;5.080;2024-02-28T06:08:59;21.37;;;12.87;;
36747;SDS011;22716;51.556;5.080;2024-02-28T06:11:27;21.03;;;13.93;;
36747;SDS011;22716;51.556;5.080;2024-02-28T06:13:56;22.23;;;13.80;;
36747;SDS011;22716;51.556;5.080;2024-02-28T06:16:25;19.63;;;13.73;;
36747;SDS011;22716;51.556;5.080;2024-02-28T06:18:53;19.73;;;14.37;;
36747;SDS011;22716;51.556;5.080;2024-02-28T06:21:22;22.77;;;14.53;;
36747;SDS011;22716;51.556;5.080;2024-02-28T06:23:51;26.97;;;14.33;;
36747;SDS011;22716;51.556;5.080;2024-02-28T06:26:22;20.73;;;13.77;;
36747;SDS011;22716;51.556;5.080;2024-02-28T06:28:52;21.53;;;13.13;;
36747;SDS011;22716;51.556;5.080;2024-02-28T06:31:26;18.77;;;15.00;;
36747;SDS011;22716;51.556;5.080;2024-02-28T06:33:56;21.70;;;13.07;;
36747;SDS011;22716;51.556;5.080;2024-02-28T06:36:26;22.87;;;15.70;;
36747;SDS011;22716;51.556;5.080;2024-02-28T06:38:55;20.60;;;13.60;;
36747;SDS011;22716;51.556;5.080;2024-02-28T06:41:26;23.83;;;13.33;;
36747;SDS011;22716;51.556;5.080;2024-02-28T06:43:55;20.63;;;13.30;;
36747;SDS011;22716;51.556;5.080;2024-02-28T06:46:24;24.50;;;15.17;;
36747;SDS011;22716;51.556;5.080;2024-02-28T06:48:52;20.10;;;13.90;;
36747;SDS011;22716;51.556;5.080;2024-02-28T06:51:21;22.07;;;14.30;;
36747;SDS011;22716;51.556;5.080;2024-02-28T06:53:49;22.50;;;14.00;;
36747;SDS011;22716;51.556;5.080;2024-02-28T06:56:18;23.13;;;14.03;;
36747;SDS011;22716;51.556;5.080;2024-02-28T06:58:49;20.07;;;14.03;;
36747;SDS011;22716;51.556;5.080;2024-02-28T07:01:18;21.40;;;14.43;;
36747;SDS011;22716;51.556;5.080;2024-02-28T07:03:46;25.57;;;13.03;;
36747;SDS011;22716;51.556;5.080;2024-02-28T07:06:15;24.03;;;14.40;;
36747;SDS011;22716;51.556;5.080;2024-02-28T07:08:43;21.90;;;14.60;;
36747;SDS011;22716;51.556;5.080;2024-02-28T07:11:15;23.27;;;15.57;;
36747;SDS011;22716;51.556;5.080;2024-02-28T07:13:44;23.30;;;13.87;;
36747;SDS011;22716;51.556;5.080;2024-02-28T07:16:15;18.93;;;12.70;;
36747;SDS011;22716;51.556;5.080;2024-02-28T07:18:43;23.27;;;15.07;;
36747;SDS011;22716;51.556;5.080;2024-02-28T07:21:12;19.23;;;13.23;;
36747;SDS011;22716;51.556;5.080;2024-02-28T07:23:41;24.10;;;14.33;;
36747;SDS011;22716;51.556;5.080;2024-02-28T07:26:13;24.37;;;14.70;;
36747;SDS011;22716;51.556;5.080;2024-02-28T07:28:43;29.00;;;15.03;;
36747;SDS011;22716;51.556;5.080;2024-02-28T07:31:17;23.60;;;13.87;;
36747;SDS011;22716;51.556;5.080;2024-02-28T07:33:47;25.20;;;14.50;;
36747;SDS011;22716;51.556;5.080;2024-02-28T07:36:16;21.20;;;14.63;;
36747;SDS011;22716;51.556;5.080;2024-02-28T07:38:45;21.30;;;14.63;;
36747;SDS011;22716;51.556;5.080;2024-02-28T07:41:13;22.60;;;15.03;;
36747;SDS011;22716;51.556;5.080;2024-02-28T07:43:42;22.17;;;15.40;;
36747;SDS011;22716;51.556;5.080;2024-02-28T07:46:11;22.27;;;13.33;;
36747;SDS011;22716;51.556;5.080;2024-02-28T07:48:42;25.10;;;14.20;;
36747;SDS011;22716;51.556;5.080;2024-02-28T07:51:11;27.27;;;15.27;;
36747;SDS011;22716;51.556;5.080;2024-02-28T07:53:40;29.20;;;15.23;;
36747;SDS011;22716;51.556;5.080;2024-02-28T07:56:15;25.17;;;14.37;;
36747;SDS011;22716;51.556;5.080;2024-02-28T07:58:44;24.23;;;14.17;;
36747;SDS011;22716;51.556;5.080;2024-02-28T08:01:13;26.33;;;16.23;;
36747;SDS011;22716;51.556;5.080;2024-02-28T08:03:44;18.97;;;13.97;;
36747;SDS011;22716;51.556;5.080;2024-02-28T08:06:13;25.80;;;15.77;;
36747;SDS011;22716;51.556;5.080;2024-02-28T08:08:43;22.97;;;14.33;;
36747;SDS011;22716;51.556;5.080;2024-02-28T08:11:13;24.73;;;14.87;;
36747;SDS011;22716;51.556;5.080;2024-02-28T08:13:42;24.10;;;14.50;;
36747;SDS011;22716;51.556;5.080;2024-02-28T08:16:11;25.47;;;16.10;;
36747;SDS011;22716;51.556;5.080;2024-02-28T08:18:40;24.50;;;14.93;;
36747;SDS011;22716;51.556;5.080;2024-02-28T08:21:11;27.23;;;16.23;;
36747;SDS011;22716;51.556;5.080;2024-02-28T08:23:40;23.30;;;14.23;;
36747;SDS011;22716;51.556;5.080;2024-02-28T08:26:08;22.07;;;14.97;;
36747;SDS011;22716;51.556;5.080;2024-02-28T08:28:37;23.87;;;14.90;;
36747;SDS011;22716;51.556;5.080;2024-02-28T08:31:05;24.13;;;15.70;;
36747;SDS011;22716;51.556;5.080;2024-02-28T08:33:34;23.57;;;15.13;;
36747;SDS011;22716;51.556;5.080;2024-02-28T08:36:03;31.67;;;16.73;;
36747;SDS011;22716;51.556;5.080;2024-02-28T08:38:35;25.70;;;15.27;;
36747;SDS011;22716;51.556;5.080;2024-02-28T08:41:04;23.07;;;13.53;;
36747;SDS011;22716;51.556;5.080;2024-02-28T08:43:33;26.00;;;12.90;;
36747;SDS011;22716;51.556;5.080;2024-02-28T08:46:01;21.97;;;14.13;;
36747;SDS011;22716;51.556;5.080;2024-02-28T08:48:30;21.90;;;15.00;;
36747;SDS011;22716;51.556;5.080;2024-02-28T08:50:58;25.70;;;15.53;;
36747;SDS011;22716;51.556;5.080;2024-02-28T08:53:27;26.77;;;15.37;;
36747;SDS011;22716;51.556;5.080;2024-02-28T08:55:58;25.67;;;14.63;;
36747;SDS011;22716;51.556;5.080;2024-02-28T08:58:27;24.93;;;14.00;;
36747;SDS011;22716;51.556;5.080;2024-02-28T09:00:55;21.27;;;13.03;;
36747;SDS011;22716;51.556;5.080;2024-02-28T09:03:24;24.27;;;14.70;;
36747;SDS011;22716;51.556;5.080;2024-02-28T09:05:53;23.80;;;15.27;;
36747;SDS011;22716;51.556;5.080;2024-02-28T09:08:21;20.27;;;14.70;;
36747;SDS011;22716;51.556;5.080;2024-02-28T09:10:50;20.17;;;13.10;;
36747;SDS011;22716;51.556;5.080;2024-02-28T09:13:21;26.77;;;14.97;;
36747;SDS011;22716;51.556;5.080;2024-02-28T09:15:49;24.07;;;15.63;;
36747;SDS011;22716;51.556;5.080;2024-02-28T09:18:18;22.83;;;14.43;;
36747;SDS011;22716;51.556;5.080;2024-02-28T09:20:47;24.90;;;14.33;;
36747;SDS011;22716;51.556;5.080;2024-02-28T09:23:15;19.90;;;13.80;;
36747;SDS011;22716;51.556;5.080;2024-02-28T09:25:44;21.17;;;15.07;;
36747;SDS011;22716;51.556;5.080;2024-02-28T09:28:12;23.20;;;14.63;;
36747;SDS011;22716;51.556;5.080;2024-02-28T09:30:44;24.67;;;14.87;;
36747;SDS011;22716;51.556;5.080;2024-02-28T09:33:15;23.17;;;14.37;;
36747;SDS011;22716;51.556;5.080;2024-02-28T09:35:44;26.88;;;15.25;;
36747;SDS011;22716;51.556;5.080;2024-02-28T09:38:13;21.27;;;14.10;;
36747;SDS011;22716;51.556;5.080;2024-02-28T09:40:45;22.93;;;14.23;;
36747;SDS011;22716;51.556;5.080;2024-02-28T09:43:15;23.73;;;13.88;;
36747;SDS011;22716;51.556;5.080;2024-02-28T09:45:56;22.63;;;14.83;;
36747;SDS011;22716;51.556;5.080;2024-02-28T09:48:27;24.83;;;14.93;;
36747;SDS011;22716;51.556;5.080;2024-02-28T09:50:57;23.83;;;14.40;;
36747;SDS011;22716;51.556;5.080;2024-02-28T09:53:26;25.40;;;14.47;;
36747;SDS011;22716;51.556;5.080;2024-02-28T09:55:54;28.43;;;15.73;;
36747;SDS011;22716;51.556;5.080;2024-02-28T09:58:23;28.03;;;16.60;;
36747;SDS011;22716;51.556;5.080;2024-02-28T10:00:56;21.17;;;15.57;;
36747;SDS011;22716;51.556;5.080;2024-02-28T10:03:28;27.03;;;16.27;;
36747;SDS011;22716;51.556;5.080;2024-02-28T10:05:59;31.27;;;16.10;;
36747;SDS011;22716;51.556;5.080;2024-02-28T10:08:27;27.75;;;16.13;;
36747;SDS011;22716;51.556;5.080;2024-02-28T10:10:57;26.23;;;16.25;;
36747;SDS011;22716;51.556;5.080;2024-02-28T10:13:25;27.37;;;15.37;;
36747;SDS011;22716;51.556;5.080;2024-02-28T10:15:56;35.90;;;15.77;;
36747;SDS011;22716;51.556;5.080;2024-02-28T10:18:25;30.23;;;17.57;;
36747;SDS011;22716;51.556;5.080;2024-02-28T10:20:54;34.57;;;17.83;;
36747;SDS011;22716;51.556;5.080;2024-02-28T10:23:22;27.23;;;16.37;;
36747;SDS011;22716;51.556;5.080;2024-02-28T10:25:52;31.87;;;15.70;;
36747;SDS011;22716;51.556;5.080;2024-02-28T10:28:21;30.93;;;16.83;;
36747;SDS011;22716;51.556;5.080;2024-02-28T10:30:49;32.50;;;18.37;;
36747;SDS011;22716;51.556;5.080;2024-02-28T10:33:21;28.03;;;18.33;;
36747;SDS011;22716;51.556;5.080;2024-02-28T10:35:50;38.13;;;19.47;;
36747;SDS011;22716;51.556;5.080;2024-02-28T10:38:20;37.07;;;19.00;;
36747;SDS011;22716;51.556;5.080;2024-02-28T10:40:49;34.23;;;18.60;;
36747;SDS011;22716;51.556;5.080;2024-02-28T10:43:19;35.77;;;17.03;;
36747;SDS011;22716;51.556;5.080;2024-02-28T10:45:48;30.40;;;19.53;;
36747;SDS011;22716;51.556;5.080;2024-02-28T10:48:17;31.97;;;18.57;;
36747;SDS011;22716;51.556;5.080;2024-02-28T10:50:49;38.95;;;19.50;;
36747;SDS011;22716;51.556;5.080;2024-02-28T10:53:21;31.40;;;17.63;;
36747;SDS011;22716;51.556;5.080;2024-02-28T10:55:51;34.22;;;18.42;;
36747;SDS011;22716;51.556;5.080;2024-02-28T10:58:25;36.58;;;19.30;;
36747;SDS011;22716;51.556;5.080;2024-02-28T11:01:02;29.27;;;16.03;;
36747;SDS011;22716;51.556;5.080;2024-02-28T11:03:34;28.95;;;16.85;;
36747;SDS011;22716;51.556;5.080;2024-02-28T11:06:03;51.77;;;17.47;;
36747;SDS011;22716;51.556;5.080;2024-02-28T11:08:33;28.40;;;15.33;;
36747;SDS011;22716;51.556;5.080;2024-02-28T11:11:02;30.15;;;15.35;;
36747;SDS011;22716;51.556;5.080;2024-02-28T11:13:33;28.05;;;15.43;;
36747;SDS011;22716;51.556;5.080;2024-02-28T11:16:06;29.02;;;15.13;;
36747;SDS011;22716;51.556;5.080;2024-02-28T11:18:38;30.63;;;15.77;;
36747;SDS011;22716;51.556;5.080;2024-02-28T11:21:16;24.20;;;14.73;;
36747;SDS011;22716;51.556;5.080;2024-02-28T11:23:45;29.63;;;14.57;;
36747;SDS011;22716;51.556;5.080;2024-02-28T11:26:15;20.33;;;13.00;;
36747;SDS011;22716;51.556;5.080;2024-02-28T11:28:46;24.23;;;14.23;;
36747;SDS011;22716;51.556;5.080;2024-02-28T11:31:15;22.73;;;14.32;;
36747;SDS011;22716;51.556;5.080;2024-02-28T11:33:47;24.85;;;15.13;;
36747;SDS011;22716;51.556;5.080;2024-02-28T11:36:15;21.63;;;13.90;;
36747;SDS011;22716;51.556;5.080;2024-02-28T11:38:45;22.38;;;13.80;;
36747;SDS011;22716;51.556;5.080;2024-02-28T11:41:14;24.67;;;12.97;;
36747;SDS011;22716;51.556;5.080;2024-02-28T11:43:42;18.33;;;12.38;;
36747;SDS011;22716;51.556;5.080;2024-02-28T11:46:11;21.60;;;12.65;;
36747;SDS011;22716;51.556;5.080;2024-02-28T11:48:39;19.30;;;12.55;;
36747;SDS011;22716;51.556;5.080;2024-02-28T11:51:11;21.03;;;13.33;;
36747;SDS011;22716;51.556;5.080;2024-02-28T11:53:40;22.85;;;12.93;;
36747;SDS011;22716;51.556;5.080;2024-02-28T11:56:09;18.80;;;12.18;;
36747;SDS011;22716;51.556;5.080;2024-02-28T11:58:49;18.87;;;11.90;;
36747;SDS011;22716;51.556;5.080;2024-02-28T12:01:18;21.10;;;13.05;;
36747;SDS011;22716;51.556;5.080;2024-02-28T12:03:45;21.65;;;14.68;;
36747;SDS011;22716;51.556;5.080;2024-02-28T12:06:17;21.57;;;14.63;;
36747;SDS011;22716;51.556;5.080;2024-02-28T12:08:45;25.42;;;15.70;;
36747;SDS011;22716;51.556;5.080;2024-02-28T12:11:15;25.52;;;14.13;;
36747;SDS011;22716;51.556;5.080;2024-02-28T12:13:44;23.30;;;13.73;;
36747;SDS011;22716;51.556;5.080;2024-02-28T12:16:12;27.10;;;13.90;;
36747;SDS011;22716;51.556;5.080;2024-02-28T12:18:41;24.40;;;14.27;;
36747;SDS011;22716;51.556;5.080;2024-02-28T12:21:09;26.65;;;15.48;;
36747;SDS011;22716;51.556;5.080;2024-02-28T12:23:41;24.40;;;13.85;;
36747;SDS011;22716;51.556;5.080;2024-02-28T12:26:09;24.70;;;14.20;;
36747;SDS011;22716;51.556;5.080;2024-02-28T12:28:38;21.27;;;14.27;;
36747;SDS011;22716;51.556;5.080;2024-02-28T12:31:06;28.20;;;13.90;;
36747;SDS011;22716;51.556;5.080;2024-02-28T12:33:37;20.17;;;13.25;;
36747;SDS011;22716;51.556;5.080;2024-02-28T12:36:06;21.70;;;14.90;;
36747;SDS011;22716;51.556;5.080;2024-02-28T12:38:35;22.55;;;13.63;;
36747;SDS011;22716;51.556;5.080;2024-02-28T12:41:06;22.90;;;14.82;;
36747;SDS011;22716;51.556;5.080;2024-02-28T12:43:36;23.13;;;14.55;;
36747;SDS011;22716;51.556;5.080;2024-02-28T12:46:04;21.80;;;13.13;;
36747;SDS011;22716;51.556;5.080;2024-02-28T12:48:36;23.70;;;14.23;;
36747;SDS011;22716;51.556;5.080;2024-02-28T12:51:06;28.50;;;15.13;;
36747;SDS011;22716;51.556;5.080;2024-02-28T12:53:39;26.70;;;14.52;;
36747;SDS011;22716;51.556;5.080;2024-02-28T12:56:11;22.85;;;14.85;;
36747;SDS011;22716;51.556;5.080;2024-02-28T12:58:39;23.80;;;14.63;;
36747;SDS011;22716;51.556;5.080;2024-02-28T13:01:08;23.05;;;14.98;;
36747;SDS011;22716;51.556;5.080;2024-02-28T13:03:36;23.75;;;15.65;;
36747;SDS011;22716;51.556;5.080;2024-02-28T13:06:05;22.15;;;12.82;;
36747;SDS011;22716;51.556;5.080;2024-02-28T13:08:34;19.50;;;14.57;;
36747;SDS011;22716;51.556;5.080;2024-02-28T13:11:02;23.30;;;11.70;;
36747;SDS011;22716;51.556;5.080;2024-02-28T13:13:35;20.30;;;13.20;;
36747;SDS011;22716;51.556;5.080;2024-02-28T13:16:04;21.37;;;14.33;;
36747;SDS011;22716;51.556;5.080;2024-02-28T13:18:32;21.58;;;13.90;;
36747;SDS011;22716;51.556;5.080;2024-02-28T13:21:01;19.80;;;13.30;;
36747;SDS011;22716;51.556;5.080;2024-02-28T13:23:30;20.90;;;13.80;;
36747;SDS011;22716;51.556;5.080;2024-02-28T13:25:59;19.13;;;11.57;;
36747;SDS011;22716;51.556;5.080;2024-02-28T13:28:28;19.40;;;11.75;;
36747;SDS011;22716;51.556;5.080;2024-02-28T13:31:00;19.25;;;10.63;;
36747;SDS011;22716;51.556;5.080;2024-02-28T13:33:29;15.10;;;10.65;;
36747;SDS011;22716;51.556;5.080;2024-02-28T13:35:58;19.40;;;11.80;;
36747;SDS011;22716;51.556;5.080;2024-02-28T13:38:26;18.38;;;11.93;;
36747;SDS011;22716;51.556;5.080;2024-02-28T13:40:55;17.48;;;11.25;;
36747;SDS011;22716;51.556;5.080;2024-02-28T13:43:25;21.80;;;13.88;;
36747;SDS011;22716;51.556;5.080;2024-02-28T13:45:53;19.88;;;12.25;;
36747;SDS011;22716;51.556;5.080;2024-02-28T13:48:28;19.63;;;11.20;;
36747;SDS011;22716;51.556;5.080;2024-02-28T13:50:59;20.60;;;12.02;;
36747;SDS011;22716;51.556;5.080;2024-02-28T13:53:27;16.10;;;10.75;;
36747;SDS011;22716;51.556;5.080;2024-02-28T13:55:56;17.50;;;11.73;;
36747;SDS011;22716;51.556;5.080;2024-02-28T13:58:24;19.98;;;12.35;;
36747;SDS011;22716;51.556;5.080;2024-02-28T14:00:53;21.05;;;12.73;;
36747;SDS011;22716;51.556;5.080;2024-02-28T14:03:22;22.63;;;12.25;;
36747;SDS011;22716;51.556;5.080;2024-02-28T14:05:54;19.20;;;12.67;;
36747;SDS011;22716;51.556;5.080;2024-02-28T14:08:22;21.65;;;12.52;;
36747;SDS011;22716;51.556;5.080;2024-02-28T14:10:51;23.65;;;12.00;;
36747;SDS011;22716;51.556;5.080;2024-02-28T14:13:20;21.52;;;12.23;;
36747;SDS011;22716;51.556;5.080;2024-02-28T14:15:48;22.27;;;11.88;;
36747;SDS011;22716;51.556;5.080;2024-02-28T14:18:18;23.50;;;11.50;;
36747;SDS011;22716;51.556;5.080;2024-02-28T14:20:47;22.27;;;12.68;;
36747;SDS011;22716;51.556;5.080;2024-02-28T14:23:18;20.67;;;12.98;;
36747;SDS011;22716;51.556;5.080;2024-02-28T14:25:47;25.73;;;13.37;;
36747;SDS011;22716;51.556;5.080;2024-02-28T14:28:15;18.20;;;11.60;;
36747;SDS011;22716;51.556;5.080;2024-02-28T14:30:44;16.77;;;10.00;;
36747;SDS011;22716;51.556;5.080;2024-02-28T14:33:14;17.83;;;10.13;;
36747;SDS011;22716;51.556;5.080;2024-02-28T14:35:43;15.70;;;11.05;;
36747;SDS011;22716;51.556;5.080;2024-02-28T14:38:11;22.10;;;10.27;;